sensor_id;sensor_type;location;lat;lon;timestamp;temperature;humidity
49777;DHT22;35673;51.482;7.436;2022-12-29T00:02:10;9.90;99.90
49777;DHT22;35673;51.482;7.436;2022-12-29T00:04:35;9.90;99.90
49777;DHT22;35673;51.482;7.436;2022-12-29T00:07:01;9.90;99.90
49777;DHT22;35673;51.482;7.436;2022-12-29T00:09:29;10.00;99.90
49777;DHT22;35673;51.482;7.436;2022-12-29T00:11:55;10.00;99.90
49777;DHT22;35673;51.482;7.436;2022-12-29T00:14:21;10.10;99.90
49777;DHT22;35673;51.482;7.436;2022-12-29T00:17:05;10.10;99.90
49777;DHT22;35673;51.482;7.436;2022-12-29T00:19:30;10.10;99.90
49777;DHT22;35673;51.482;7.436;2022-12-29T00:22:15;10.10;99.90
49777;DHT22;35673;51.482;7.436;2022-12-29T00:24:59;10.20;99.90
49777;DHT22;35673;51.482;7.436;2022-12-29T00:27:43;10.20;99.90
49777;DHT22;35673;51.482;7.436;2022-12-29T00:30:27;10.20;99.90
49777;DHT22;35673;51.482;7.436;2022-12-29T00:33:15;10.20;99.90
49777;DHT22;35673;51.482;7.436;2022-12-29T00:38:28;10.30;99.90
49777;DHT22;35673;51.482;7.436;2022-12-29T00:41:13;10.30;99.90
49777;DHT22;35673;51.482;7.436;2022-12-29T00:43:57;10.20;99.90
49777;DHT22;35673;51.482;7.436;2022-12-29T00:46:35;10.20;99.90
49777;DHT22;35673;51.482;7.436;2022-12-29T00:49:01;10.20;99.90
49777;DHT22;35673;51.482;7.436;2022-12-29T00:51:46;10.20;99.90
49777;DHT22;35673;51.482;7.436;2022-12-29T00:54:12;10.20;99.90
49777;DHT22;35673;51.482;7.436;2022-12-29T00:56:37;10.20;99.90
49777;DHT22;35673;51.482;7.436;2022-12-29T00:59:04;10.20;99.90
49777;DHT22;35673;51.482;7.436;2022-12-29T01:01:30;10.20;99.90
49777;DHT22;35673;51.482;7.436;2022-12-29T01:03:55;10.20;99.90
49777;DHT22;35673;51.482;7.436;2022-12-29T01:06:21;10.30;99.90
49777;DHT22;35673;51.482;7.436;2022-12-29T01:08:46;10.30;99.90
49777;DHT22;35673;51.482;7.436;2022-12-29T01:11:32;10.30;99.90
49777;DHT22;35673;51.482;7.436;2022-12-29T01:13:57;10.20;99.90
49777;DHT22;35673;51.482;7.436;2022-12-29T01:16:23;10.20;99.90
49777;DHT22;35673;51.482;7.436;2022-12-29T01:18:48;10.20;99.90
49777;DHT22;35673;51.482;7.436;2022-12-29T01:21:13;10.20;99.90
49777;DHT22;35673;51.482;7.436;2022-12-29T01:23:39;10.20;99.90
49777;DHT22;35673;51.482;7.436;2022-12-29T01:26:08;10.10;99.90
49777;DHT22;35673;51.482;7.436;2022-12-29T01:28:34;10.20;99.90
49777;DHT22;35673;51.482;7.436;2022-12-29T01:31:00;10.20;99.90
49777;DHT22;35673;51.482;7.436;2022-12-29T01:33:25;10.20;99.90
49777;DHT22;35673;51.482;7.436;2022-12-29T01:35:51;10.20;99.90
49777;DHT22;35673;51.482;7.436;2022-12-29T01:38:16;10.20;99.90
49777;DHT22;35673;51.482;7.436;2022-12-29T01:40:45;10.30;99.90
49777;DHT22;35673;51.482;7.436;2022-12-29T01:43:12;10.40;99.90
49777;DHT22;35673;51.482;7.436;2022-12-29T01:45:38;10.50;99.90
49777;DHT22;35673;51.482;7.436;2022-12-29T01:48:03;10.50;99.90
49777;DHT22;35673;51.482;7.436;2022-12-29T01:50:31;10.50;99.90
49777;DHT22;35673;51.482;7.436;2022-12-29T01:53:00;10.50;99.90
49777;DHT22;35673;51.482;7.436;2022-12-29T01:55:27;10.50;99.90
49777;DHT22;35673;51.482;7.436;2022-12-29T01:57:53;10.50;99.90
49777;DHT22;35673;51.482;7.436;2022-12-29T02:00:21;10.50;99.90
49777;DHT22;35673;51.482;7.436;2022-12-29T02:02:53;10.60;99.90
49777;DHT22;35673;51.482;7.436;2022-12-29T02:06:07;10.60;99.90
49777;DHT22;35673;51.482;7.436;2022-12-29T02:08:05;10.70;99.90
49777;DHT22;35673;51.482;7.436;2022-12-29T02:10:31;10.70;99.90
49777;DHT22;35673;51.482;7.436;2022-12-29T02:12:57;10.70;99.90
49777;DHT22;35673;51.482;7.436;2022-12-29T02:15:27;10.70;99.90
49777;DHT22;35673;51.482;7.436;2022-12-29T02:18:00;10.70;99.90
49777;DHT22;35673;51.482;7.436;2022-12-29T02:28:48;10.80;99.90
49777;DHT22;35673;51.482;7.436;2022-12-29T02:36:07;10.80;99.90
49777;DHT22;35673;51.482;7.436;2022-12-29T02:41:42;10.90;99.90
49777;DHT22;35673;51.482;7.436;2022-12-29T02:44:13;11.00;99.90
49777;DHT22;35673;51.482;7.436;2022-12-29T02:46:59;10.90;99.90
49777;DHT22;35673;51.482;7.436;2022-12-29T02:54:28;11.00;99.90
49777;DHT22;35673;51.482;7.436;2022-12-29T02:59:38;11.00;99.90
49777;DHT22;35673;51.482;7.436;2022-12-29T03:07:31;11.10;99.90
49777;DHT22;35673;51.482;7.436;2022-12-29T03:15:42;11.30;99.90
49777;DHT22;35673;51.482;7.436;2022-12-29T03:20:55;11.30;99.90
49777;DHT22;35673;51.482;7.436;2022-12-29T03:23:22;11.30;99.90
49777;DHT22;35673;51.482;7.436;2022-12-29T03:25:51;11.30;99.90
49777;DHT22;35673;51.482;7.436;2022-12-29T03:28:24;11.30;99.90
49777;DHT22;35673;51.482;7.436;2022-12-29T03:30:50;11.30;99.90
49777;DHT22;35673;51.482;7.436;2022-12-29T03:33:18;11.30;99.90
49777;DHT22;35673;51.482;7.436;2022-12-29T03:35:45;11.20;99.90
49777;DHT22;35673;51.482;7.436;2022-12-29T03:38:19;11.20;99.90
49777;DHT22;35673;51.482;7.436;2022-12-29T03:40:48;11.20;99.90
49777;DHT22;35673;51.482;7.436;2022-12-29T03:43:14;11.10;99.90
49777;DHT22;35673;51.482;7.436;2022-12-29T03:45:41;11.00;99.90
49777;DHT22;35673;51.482;7.436;2022-12-29T03:48:06;11.00;99.90
49777;DHT22;35673;51.482;7.436;2022-12-29T03:50:32;11.00;99.90
49777;DHT22;35673;51.482;7.436;2022-12-29T03:52:57;11.00;99.90
49777;DHT22;35673;51.482;7.436;2022-12-29T03:55:23;11.00;99.90
49777;DHT22;35673;51.482;7.436;2022-12-29T03:57:48;11.00;99.90
49777;DHT22;35673;51.482;7.436;2022-12-29T04:00:14;10.90;99.90
49777;DHT22;35673;51.482;7.436;2022-12-29T04:02:39;10.80;99.90
49777;DHT22;35673;51.482;7.436;2022-12-29T04:05:05;10.70;99.90
49777;DHT22;35673;51.482;7.436;2022-12-29T04:07:30;10.70;99.90
49777;DHT22;35673;51.482;7.436;2022-12-29T04:09:56;10.60;99.90
49777;DHT22;35673;51.482;7.436;2022-12-29T04:12:21;10.60;99.90
49777;DHT22;35673;51.482;7.436;2022-12-29T04:14:47;10.60;99.90
49777;DHT22;35673;51.482;7.436;2022-12-29T04:17:12;10.60;99.90
49777;DHT22;35673;51.482;7.436;2022-12-29T04:19:38;10.50;99.90
49777;DHT22;35673;51.482;7.436;2022-12-29T04:22:03;10.50;99.90
49777;DHT22;35673;51.482;7.436;2022-12-29T04:24:29;10.50;99.90
49777;DHT22;35673;51.482;7.436;2022-12-29T04:26:54;10.50;99.90
49777;DHT22;35673;51.482;7.436;2022-12-29T04:29:20;10.60;99.90
49777;DHT22;35673;51.482;7.436;2022-12-29T04:31:45;10.60;99.90
49777;DHT22;35673;51.482;7.436;2022-12-29T04:34:11;10.60;99.90
49777;DHT22;35673;51.482;7.436;2022-12-29T04:36:36;10.60;99.90
49777;DHT22;35673;51.482;7.436;2022-12-29T04:39:02;10.70;99.90
49777;DHT22;35673;51.482;7.436;2022-12-29T04:41:30;10.70;99.90
49777;DHT22;35673;51.482;7.436;2022-12-29T04:43:55;10.80;99.90
49777;DHT22;35673;51.482;7.436;2022-12-29T04:46:21;10.80;99.90
49777;DHT22;35673;51.482;7.436;2022-12-29T04:48:47;10.80;99.90
49777;DHT22;35673;51.482;7.436;2022-12-29T04:51:12;10.80;99.90
49777;DHT22;35673;51.482;7.436;2022-12-29T04:53:38;10.90;99.90
49777;DHT22;35673;51.482;7.436;2022-12-29T04:56:03;10.90;99.90
49777;DHT22;35673;51.482;7.436;2022-12-29T04:58:29;11.00;99.90
49777;DHT22;35673;51.482;7.436;2022-12-29T05:00:54;11.10;99.90
49777;DHT22;35673;51.482;7.436;2022-12-29T05:03:20;11.10;99.90
49777;DHT22;35673;51.482;7.436;2022-12-29T05:05:45;11.20;99.90
49777;DHT22;35673;51.482;7.436;2022-12-29T05:08:11;11.20;99.90
49777;DHT22;35673;51.482;7.436;2022-12-29T05:10:36;11.30;99.90
49777;DHT22;35673;51.482;7.436;2022-12-29T05:13:02;11.40;99.90
49777;DHT22;35673;51.482;7.436;2022-12-29T05:15:27;11.50;99.90
49777;DHT22;35673;51.482;7.436;2022-12-29T05:17:52;11.40;99.90
49777;DHT22;35673;51.482;7.436;2022-12-29T05:20:18;11.50;99.90
49777;DHT22;35673;51.482;7.436;2022-12-29T05:22:43;11.60;99.90
49777;DHT22;35673;51.482;7.436;2022-12-29T05:25:09;11.50;99.90
49777;DHT22;35673;51.482;7.436;2022-12-29T05:27:34;11.60;99.90
49777;DHT22;35673;51.482;7.436;2022-12-29T05:30:00;11.60;99.90
49777;DHT22;35673;51.482;7.436;2022-12-29T05:32:25;11.60;99.90
49777;DHT22;35673;51.482;7.436;2022-12-29T05:34:51;11.70;99.90
49777;DHT22;35673;51.482;7.436;2022-12-29T05:37:16;11.60;99.90
49777;DHT22;35673;51.482;7.436;2022-12-29T05:39:42;11.60;99.90
49777;DHT22;35673;51.482;7.436;2022-12-29T05:42:07;11.70;99.90
49777;DHT22;35673;51.482;7.436;2022-12-29T05:44:33;11.70;99.90
49777;DHT22;35673;51.482;7.436;2022-12-29T05:46:58;11.80;99.90
49777;DHT22;35673;51.482;7.436;2022-12-29T05:49:24;11.70;99.90
49777;DHT22;35673;51.482;7.436;2022-12-29T05:51:49;11.70;99.90
49777;DHT22;35673;51.482;7.436;2022-12-29T05:54:15;11.80;99.90
49777;DHT22;35673;51.482;7.436;2022-12-29T05:56:40;11.80;99.90
49777;DHT22;35673;51.482;7.436;2022-12-29T05:59:05;11.80;99.90
49777;DHT22;35673;51.482;7.436;2022-12-29T06:01:31;11.80;99.90
49777;DHT22;35673;51.482;7.436;2022-12-29T06:03:56;11.80;99.90
49777;DHT22;35673;51.482;7.436;2022-12-29T06:06:22;11.70;99.90
49777;DHT22;35673;51.482;7.436;2022-12-29T06:08:47;11.70;99.90
49777;DHT22;35673;51.482;7.436;2022-12-29T06:11:13;11.80;99.90
49777;DHT22;35673;51.482;7.436;2022-12-29T06:13:38;11.70;99.90
49777;DHT22;35673;51.482;7.436;2022-12-29T06:16:04;11.70;99.90
49777;DHT22;35673;51.482;7.436;2022-12-29T06:18:29;11.70;99.90
49777;DHT22;35673;51.482;7.436;2022-12-29T06:20:59;11.80;99.90
49777;DHT22;35673;51.482;7.436;2022-12-29T06:23:24;11.70;99.90
49777;DHT22;35673;51.482;7.436;2022-12-29T06:25:50;11.70;99.90
49777;DHT22;35673;51.482;7.436;2022-12-29T06:28:15;11.70;99.90
49777;DHT22;35673;51.482;7.436;2022-12-29T06:30:43;11.70;99.90
49777;DHT22;35673;51.482;7.436;2022-12-29T06:33:08;11.80;99.90
49777;DHT22;35673;51.482;7.436;2022-12-29T06:35:34;11.80;99.90
49777;DHT22;35673;51.482;7.436;2022-12-29T06:37:59;11.70;99.90
49777;DHT22;35673;51.482;7.436;2022-12-29T06:40:25;11.80;99.90
49777;DHT22;35673;51.482;7.436;2022-12-29T06:42:50;11.80;99.90
49777;DHT22;35673;51.482;7.436;2022-12-29T06:45:15;11.90;99.90
49777;DHT22;35673;51.482;7.436;2022-12-29T06:47:41;11.80;99.20
49777;DHT22;35673;51.482;7.436;2022-12-29T06:50:06;11.80;99.90
49777;DHT22;35673;51.482;7.436;2022-12-29T06:52:32;11.80;99.90
49777;DHT22;35673;51.482;7.436;2022-12-29T06:54:57;11.80;99.50
49777;DHT22;35673;51.482;7.436;2022-12-29T06:57:24;11.80;99.90
49777;DHT22;35673;51.482;7.436;2022-12-29T06:59:51;11.70;99.90
49777;DHT22;35673;51.482;7.436;2022-12-29T07:02:17;11.70;99.90
49777;DHT22;35673;51.482;7.436;2022-12-29T07:04:44;11.80;99.90
49777;DHT22;35673;51.482;7.436;2022-12-29T07:07:10;11.70;99.90
49777;DHT22;35673;51.482;7.436;2022-12-29T07:09:35;11.70;99.90
49777;DHT22;35673;51.482;7.436;2022-12-29T07:12:01;11.70;99.90
49777;DHT22;35673;51.482;7.436;2022-12-29T07:14:26;11.70;99.90
49777;DHT22;35673;51.482;7.436;2022-12-29T07:16:52;11.70;99.90
49777;DHT22;35673;51.482;7.436;2022-12-29T07:19:17;11.70;99.90
49777;DHT22;35673;51.482;7.436;2022-12-29T07:21:43;11.70;99.90
49777;DHT22;35673;51.482;7.436;2022-12-29T07:24:08;11.70;99.90
49777;DHT22;35673;51.482;7.436;2022-12-29T07:26:34;11.70;99.90
49777;DHT22;35673;51.482;7.436;2022-12-29T07:29:01;11.70;99.90
49777;DHT22;35673;51.482;7.436;2022-12-29T07:31:27;11.60;99.60
49777;DHT22;35673;51.482;7.436;2022-12-29T07:33:53;11.60;99.00
49777;DHT22;35673;51.482;7.436;2022-12-29T07:36:19;11.60;99.10
49777;DHT22;35673;51.482;7.436;2022-12-29T07:38:44;11.60;98.20
49777;DHT22;35673;51.482;7.436;2022-12-29T07:41:10;11.60;97.80
49777;DHT22;35673;51.482;7.436;2022-12-29T07:43:35;11.60;97.30
49777;DHT22;35673;51.482;7.436;2022-12-29T07:46:00;11.60;96.60
49777;DHT22;35673;51.482;7.436;2022-12-29T07:48:26;11.60;97.20
49777;DHT22;35673;51.482;7.436;2022-12-29T07:50:52;11.60;95.80
49777;DHT22;35673;51.482;7.436;2022-12-29T07:53:17;11.60;95.90
49777;DHT22;35673;51.482;7.436;2022-12-29T07:55:43;11.50;96.10
49777;DHT22;35673;51.482;7.436;2022-12-29T07:58:08;11.40;96.90
49777;DHT22;35673;51.482;7.436;2022-12-29T08:00:34;11.40;97.60
49777;DHT22;35673;51.482;7.436;2022-12-29T08:02:59;11.40;95.90
49777;DHT22;35673;51.482;7.436;2022-12-29T08:05:25;11.40;95.30
49777;DHT22;35673;51.482;7.436;2022-12-29T08:07:50;11.50;93.30
49777;DHT22;35673;51.482;7.436;2022-12-29T08:10:16;11.50;93.70
49777;DHT22;35673;51.482;7.436;2022-12-29T08:12:41;11.50;94.00
49777;DHT22;35673;51.482;7.436;2022-12-29T08:15:08;11.50;94.40
49777;DHT22;35673;51.482;7.436;2022-12-29T08:17:34;11.50;93.50
49777;DHT22;35673;51.482;7.436;2022-12-29T08:19:59;11.50;93.80
49777;DHT22;35673;51.482;7.436;2022-12-29T08:22:25;11.50;94.30
49777;DHT22;35673;51.482;7.436;2022-12-29T08:24:50;11.40;94.10
49777;DHT22;35673;51.482;7.436;2022-12-29T08:27:16;11.40;95.00
49777;DHT22;35673;51.482;7.436;2022-12-29T08:29:42;11.40;95.30
49777;DHT22;35673;51.482;7.436;2022-12-29T08:32:08;11.40;93.50
49777;DHT22;35673;51.482;7.436;2022-12-29T08:34:33;11.40;92.90
49777;DHT22;35673;51.482;7.436;2022-12-29T08:36:59;11.40;92.90
49777;DHT22;35673;51.482;7.436;2022-12-29T08:39:24;11.50;92.40
49777;DHT22;35673;51.482;7.436;2022-12-29T08:41:50;11.50;92.30
49777;DHT22;35673;51.482;7.436;2022-12-29T08:44:15;11.40;93.20
49777;DHT22;35673;51.482;7.436;2022-12-29T08:46:40;11.40;92.40
49777;DHT22;35673;51.482;7.436;2022-12-29T08:49:06;11.50;92.30
49777;DHT22;35673;51.482;7.436;2022-12-29T08:51:32;11.50;92.00
49777;DHT22;35673;51.482;7.436;2022-12-29T08:53:58;11.50;92.00
49777;DHT22;35673;51.482;7.436;2022-12-29T08:56:23;11.50;92.50
49777;DHT22;35673;51.482;7.436;2022-12-29T08:58:49;11.50;92.30
49777;DHT22;35673;51.482;7.436;2022-12-29T09:01:15;11.50;92.20
49777;DHT22;35673;51.482;7.436;2022-12-29T09:03:40;11.50;92.60
49777;DHT22;35673;51.482;7.436;2022-12-29T09:06:06;11.50;93.10
49777;DHT22;35673;51.482;7.436;2022-12-29T09:08:31;11.40;93.30
49777;DHT22;35673;51.482;7.436;2022-12-29T09:11:05;11.40;93.50
49777;DHT22;35673;51.482;7.436;2022-12-29T09:13:30;11.30;96.30
49777;DHT22;35673;51.482;7.436;2022-12-29T09:15:58;11.00;98.10
49777;DHT22;35673;51.482;7.436;2022-12-29T09:18:24;10.90;98.10
49777;DHT22;35673;51.482;7.436;2022-12-29T09:20:55;10.80;99.00
49777;DHT22;35673;51.482;7.436;2022-12-29T09:23:20;10.70;99.90
49777;DHT22;35673;51.482;7.436;2022-12-29T09:25:47;10.60;99.60
49777;DHT22;35673;51.482;7.436;2022-12-29T09:28:12;10.70;99.00
49777;DHT22;35673;51.482;7.436;2022-12-29T09:30:38;10.70;98.80
49777;DHT22;35673;51.482;7.436;2022-12-29T09:33:03;10.70;98.90
49777;DHT22;35673;51.482;7.436;2022-12-29T09:35:29;10.70;99.10
49777;DHT22;35673;51.482;7.436;2022-12-29T09:37:54;10.80;98.30
49777;DHT22;35673;51.482;7.436;2022-12-29T09:40:22;11.00;98.10
49777;DHT22;35673;51.482;7.436;2022-12-29T09:43:12;11.10;97.20
49777;DHT22;35673;51.482;7.436;2022-12-29T09:45:42;11.20;96.90
49777;DHT22;35673;51.482;7.436;2022-12-29T09:48:14;11.40;95.30
49777;DHT22;35673;51.482;7.436;2022-12-29T09:50:41;11.30;94.80
49777;DHT22;35673;51.482;7.436;2022-12-29T09:53:10;11.30;94.80
49777;DHT22;35673;51.482;7.436;2022-12-29T09:55:45;11.30;94.70
49777;DHT22;35673;51.482;7.436;2022-12-29T10:01:02;11.30;95.20
49777;DHT22;35673;51.482;7.436;2022-12-29T10:03:48;11.30;94.90
49777;DHT22;35673;51.482;7.436;2022-12-29T10:06:18;11.30;95.10
49777;DHT22;35673;51.482;7.436;2022-12-29T10:08:55;11.30;95.50
49777;DHT22;35673;51.482;7.436;2022-12-29T10:17:05;11.20;95.20
49777;DHT22;35673;51.482;7.436;2022-12-29T10:19:43;11.20;95.50
49777;DHT22;35673;51.482;7.436;2022-12-29T10:24:37;11.50;92.90
49777;DHT22;35673;51.482;7.436;2022-12-29T10:27:03;11.60;92.60
49777;DHT22;35673;51.482;7.436;2022-12-29T10:29:36;11.60;92.10
49777;DHT22;35673;51.482;7.436;2022-12-29T10:32:03;11.60;90.80
49777;DHT22;35673;51.482;7.436;2022-12-29T10:34:43;11.70;89.80
49777;DHT22;35673;51.482;7.436;2022-12-29T10:40:14;11.70;87.80
49777;DHT22;35673;51.482;7.436;2022-12-29T10:42:41;11.70;87.70
49777;DHT22;35673;51.482;7.436;2022-12-29T10:45:12;11.80;88.20
49777;DHT22;35673;51.482;7.436;2022-12-29T10:47:42;12.20;88.00
49777;DHT22;35673;51.482;7.436;2022-12-29T10:50:12;12.10;85.60
49777;DHT22;35673;51.482;7.436;2022-12-29T10:52:38;12.10;86.10
49777;DHT22;35673;51.482;7.436;2022-12-29T10:55:13;12.00;85.10
49777;DHT22;35673;51.482;7.436;2022-12-29T10:57:41;12.20;84.40
49777;DHT22;35673;51.482;7.436;2022-12-29T11:00:18;12.10;84.30
49777;DHT22;35673;51.482;7.436;2022-12-29T11:05:25;11.90;83.00
49777;DHT22;35673;51.482;7.436;2022-12-29T11:07:53;11.90;83.30
49777;DHT22;35673;51.482;7.436;2022-12-29T11:13:00;11.70;84.30
49777;DHT22;35673;51.482;7.436;2022-12-29T11:15:25;11.70;83.90
49777;DHT22;35673;51.482;7.436;2022-12-29T11:17:52;11.70;83.90
49777;DHT22;35673;51.482;7.436;2022-12-29T11:22:59;11.70;84.50
49777;DHT22;35673;51.482;7.436;2022-12-29T11:25:24;11.60;84.10
49777;DHT22;35673;51.482;7.436;2022-12-29T11:27:57;11.60;84.30
49777;DHT22;35673;51.482;7.436;2022-12-29T11:30:24;11.60;84.20
49777;DHT22;35673;51.482;7.436;2022-12-29T11:32:54;11.60;83.30
49777;DHT22;35673;51.482;7.436;2022-12-29T11:35:36;11.60;83.60
49777;DHT22;35673;51.482;7.436;2022-12-29T11:38:03;11.60;83.80
49777;DHT22;35673;51.482;7.436;2022-12-29T11:40:29;11.50;83.10
49777;DHT22;35673;51.482;7.436;2022-12-29T11:43:00;11.50;83.60
49777;DHT22;35673;51.482;7.436;2022-12-29T11:45:30;11.50;83.60
49777;DHT22;35673;51.482;7.436;2022-12-29T11:47:59;11.50;83.30
49777;DHT22;35673;51.482;7.436;2022-12-29T11:50:26;11.50;83.50
49777;DHT22;35673;51.482;7.436;2022-12-29T11:52:59;11.50;83.60
49777;DHT22;35673;51.482;7.436;2022-12-29T11:55:26;11.50;83.70
49777;DHT22;35673;51.482;7.436;2022-12-29T11:57:52;11.40;83.50
49777;DHT22;35673;51.482;7.436;2022-12-29T12:00:20;11.50;82.60
49777;DHT22;35673;51.482;7.436;2022-12-29T12:05:44;11.50;83.10
49777;DHT22;35673;51.482;7.436;2022-12-29T12:08:13;11.50;83.10
49777;DHT22;35673;51.482;7.436;2022-12-29T12:11:16;11.50;83.10
49777;DHT22;35673;51.482;7.436;2022-12-29T12:13:34;11.50;83.20
49777;DHT22;35673;51.482;7.436;2022-12-29T12:18:49;11.50;83.40
49777;DHT22;35673;51.482;7.436;2022-12-29T12:21:18;11.50;83.90
49777;DHT22;35673;51.482;7.436;2022-12-29T12:23:52;11.50;83.50
49777;DHT22;35673;51.482;7.436;2022-12-29T12:26:27;11.50;82.90
49777;DHT22;35673;51.482;7.436;2022-12-29T12:29:09;11.40;83.30
49777;DHT22;35673;51.482;7.436;2022-12-29T12:31:41;11.40;83.30
49777;DHT22;35673;51.482;7.436;2022-12-29T12:34:11;11.50;82.50
49777;DHT22;35673;51.482;7.436;2022-12-29T12:39:44;11.50;82.50
49777;DHT22;35673;51.482;7.436;2022-12-29T12:50:02;11.40;83.30
49777;DHT22;35673;51.482;7.436;2022-12-29T12:52:33;11.40;83.40
49777;DHT22;35673;51.482;7.436;2022-12-29T12:57:49;11.40;82.60
49777;DHT22;35673;51.482;7.436;2022-12-29T13:00:18;11.40;82.40
49777;DHT22;35673;51.482;7.436;2022-12-29T13:02:57;11.30;82.40
49777;DHT22;35673;51.482;7.436;2022-12-29T13:05:25;11.30;82.80
49777;DHT22;35673;51.482;7.436;2022-12-29T13:13:23;11.20;83.30
49777;DHT22;35673;51.482;7.436;2022-12-29T13:15:58;11.20;83.60
49777;DHT22;35673;51.482;7.436;2022-12-29T13:24:15;11.20;84.00
49777;DHT22;35673;51.482;7.436;2022-12-29T13:26:54;11.20;83.90
49777;DHT22;35673;51.482;7.436;2022-12-29T13:32:14;11.20;84.40
49777;DHT22;35673;51.482;7.436;2022-12-29T13:37:12;11.10;84.60
49777;DHT22;35673;51.482;7.436;2022-12-29T13:39:40;11.10;84.60
49777;DHT22;35673;51.482;7.436;2022-12-29T13:42:07;11.10;84.70
49777;DHT22;35673;51.482;7.436;2022-12-29T13:44:54;11.10;84.60
49777;DHT22;35673;51.482;7.436;2022-12-29T13:49:47;11.10;84.80
49777;DHT22;35673;51.482;7.436;2022-12-29T13:55:01;11.10;84.50
49777;DHT22;35673;51.482;7.436;2022-12-29T14:00:32;11.00;85.10
49777;DHT22;35673;51.482;7.436;2022-12-29T14:03:09;11.00;85.70
49777;DHT22;35673;51.482;7.436;2022-12-29T14:05:37;11.00;85.90
49777;DHT22;35673;51.482;7.436;2022-12-29T14:08:06;10.90;86.00
49777;DHT22;35673;51.482;7.436;2022-12-29T14:10:45;10.90;86.40
49777;DHT22;35673;51.482;7.436;2022-12-29T14:13:12;10.90;86.90
49777;DHT22;35673;51.482;7.436;2022-12-29T14:15:39;10.90;86.90
49777;DHT22;35673;51.482;7.436;2022-12-29T14:18:16;10.90;86.90
49777;DHT22;35673;51.482;7.436;2022-12-29T14:20:53;10.90;87.00
49777;DHT22;35673;51.482;7.436;2022-12-29T14:23:26;10.90;86.90
49777;DHT22;35673;51.482;7.436;2022-12-29T14:25:59;10.90;86.30
49777;DHT22;35673;51.482;7.436;2022-12-29T14:28:26;10.90;86.50
49777;DHT22;35673;51.482;7.436;2022-12-29T14:30:53;10.80;86.50
49777;DHT22;35673;51.482;7.436;2022-12-29T14:33:20;10.80;87.00
49777;DHT22;35673;51.482;7.436;2022-12-29T14:35:47;10.80;86.80
49777;DHT22;35673;51.482;7.436;2022-12-29T14:38:18;10.90;86.60
49777;DHT22;35673;51.482;7.436;2022-12-29T14:40:45;10.90;86.50
49777;DHT22;35673;51.482;7.436;2022-12-29T14:43:11;10.90;86.50
49777;DHT22;35673;51.482;7.436;2022-12-29T14:45:38;10.90;86.30
49777;DHT22;35673;51.482;7.436;2022-12-29T14:51:20;10.90;85.00
49777;DHT22;35673;51.482;7.436;2022-12-29T14:53:49;10.90;85.00
49777;DHT22;35673;51.482;7.436;2022-12-29T14:56:16;10.90;84.60
49777;DHT22;35673;51.482;7.436;2022-12-29T14:58:49;10.90;84.80
49777;DHT22;35673;51.482;7.436;2022-12-29T15:01:17;10.80;84.80
49777;DHT22;35673;51.482;7.436;2022-12-29T15:03:45;10.90;84.40
49777;DHT22;35673;51.482;7.436;2022-12-29T15:06:11;10.80;84.60
49777;DHT22;35673;51.482;7.436;2022-12-29T15:08:45;10.80;84.60
49777;DHT22;35673;51.482;7.436;2022-12-29T15:11:22;10.80;84.50
49777;DHT22;35673;51.482;7.436;2022-12-29T15:13:48;10.80;84.40
49777;DHT22;35673;51.482;7.436;2022-12-29T15:16:23;10.80;84.60
49777;DHT22;35673;51.482;7.436;2022-12-29T15:18:49;10.80;83.90
49777;DHT22;35673;51.482;7.436;2022-12-29T15:21:15;10.80;83.90
49777;DHT22;35673;51.482;7.436;2022-12-29T15:23:42;10.80;84.00
49777;DHT22;35673;51.482;7.436;2022-12-29T15:26:08;10.80;83.90
49777;DHT22;35673;51.482;7.436;2022-12-29T15:28:43;10.80;84.50
49777;DHT22;35673;51.482;7.436;2022-12-29T15:31:19;10.80;83.80
49777;DHT22;35673;51.482;7.436;2022-12-29T15:33:46;10.80;83.80
49777;DHT22;35673;51.482;7.436;2022-12-29T15:36:20;10.70;83.90
49777;DHT22;35673;51.482;7.436;2022-12-29T15:38:46;10.70;84.00
49777;DHT22;35673;51.482;7.436;2022-12-29T15:46:18;10.70;84.30
49777;DHT22;35673;51.482;7.436;2022-12-29T15:48:44;10.60;84.30
49777;DHT22;35673;51.482;7.436;2022-12-29T15:51:20;10.60;84.30
49777;DHT22;35673;51.482;7.436;2022-12-29T15:53:48;10.60;84.10
49777;DHT22;35673;51.482;7.436;2022-12-29T15:56:14;10.70;84.30
49777;DHT22;35673;51.482;7.436;2022-12-29T15:58:41;10.60;84.10
49777;DHT22;35673;51.482;7.436;2022-12-29T16:01:29;10.60;84.10
49777;DHT22;35673;51.482;7.436;2022-12-29T16:03:56;10.60;84.50
49777;DHT22;35673;51.482;7.436;2022-12-29T16:06:27;10.60;84.50
49777;DHT22;35673;51.482;7.436;2022-12-29T16:09:06;10.60;84.50
49777;DHT22;35673;51.482;7.436;2022-12-29T16:14:00;10.50;85.00
49777;DHT22;35673;51.482;7.436;2022-12-29T16:16:31;10.50;85.30
49777;DHT22;35673;51.482;7.436;2022-12-29T16:18:59;10.50;85.20
49777;DHT22;35673;51.482;7.436;2022-12-29T16:21:28;10.50;85.10
49777;DHT22;35673;51.482;7.436;2022-12-29T16:23:55;10.50;85.10
49777;DHT22;35673;51.482;7.436;2022-12-29T16:26:22;10.50;85.00
49777;DHT22;35673;51.482;7.436;2022-12-29T16:28:50;10.50;85.10
49777;DHT22;35673;51.482;7.436;2022-12-29T16:31:18;10.50;85.30
49777;DHT22;35673;51.482;7.436;2022-12-29T16:33:53;10.50;85.50
49777;DHT22;35673;51.482;7.436;2022-12-29T16:36:21;10.40;85.30
49777;DHT22;35673;51.482;7.436;2022-12-29T16:38:46;10.40;85.50
49777;DHT22;35673;51.482;7.436;2022-12-29T16:41:12;10.30;85.60
49777;DHT22;35673;51.482;7.436;2022-12-29T16:44:10;10.30;86.10
49777;DHT22;35673;51.482;7.436;2022-12-29T16:46:36;10.30;86.10
49777;DHT22;35673;51.482;7.436;2022-12-29T16:49:02;10.20;86.50
49777;DHT22;35673;51.482;7.436;2022-12-29T16:51:29;10.20;86.70
49777;DHT22;35673;51.482;7.436;2022-12-29T16:53:55;10.20;86.60
49777;DHT22;35673;51.482;7.436;2022-12-29T16:56:23;10.20;86.80
49777;DHT22;35673;51.482;7.436;2022-12-29T16:58:58;10.20;87.20
49777;DHT22;35673;51.482;7.436;2022-12-29T17:01:25;10.20;87.20
49777;DHT22;35673;51.482;7.436;2022-12-29T17:03:51;10.20;87.20
49777;DHT22;35673;51.482;7.436;2022-12-29T17:06:19;10.20;86.80
49777;DHT22;35673;51.482;7.436;2022-12-29T17:08:45;10.20;86.80
49777;DHT22;35673;51.482;7.436;2022-12-29T17:11:18;10.20;86.50
49777;DHT22;35673;51.482;7.436;2022-12-29T17:14:03;10.20;86.10
49777;DHT22;35673;51.482;7.436;2022-12-29T17:16:29;10.20;86.30
49777;DHT22;35673;51.482;7.436;2022-12-29T17:18:55;10.20;86.10
49777;DHT22;35673;51.482;7.436;2022-12-29T17:21:20;10.20;85.30
49777;DHT22;35673;51.482;7.436;2022-12-29T17:23:45;10.20;85.50
49777;DHT22;35673;51.482;7.436;2022-12-29T17:26:11;10.20;85.00
49777;DHT22;35673;51.482;7.436;2022-12-29T17:28:37;10.20;84.50
49777;DHT22;35673;51.482;7.436;2022-12-29T17:31:03;10.20;84.60
49777;DHT22;35673;51.482;7.436;2022-12-29T17:33:34;10.20;84.40
49777;DHT22;35673;51.482;7.436;2022-12-29T17:36:00;10.20;84.30